sensor_id;sensor_type;location;lat;lon;timestamp;pressure;altitude;pressure_sealevel;temperature;humidity
64683;BME280;51107;47.652;19.016;2023-07-16T00:00:31;99762.28;;;21.84;85.09
64683;BME280;51107;47.652;19.016;2023-07-16T00:03:00;99771.13;;;21.78;86.73
64683;BME280;51107;47.652;19.016;2023-07-16T00:05:29;99756.84;;;21.79;85.98
64683;BME280;51107;47.652;19.016;2023-07-16T00:07:57;99758.44;;;21.80;86.10
64683;BME280;51107;47.652;19.016;2023-07-16T00:10:26;99759.53;;;21.61;86.40
64683;BME280;51107;47.652;19.016;2023-07-16T00:12:54;99764.31;;;21.52;87.18
64683;BME280;51107;47.652;19.016;2023-07-16T00:15:23;99774.03;;;21.58;86.67
64683;BME280;51107;47.652;19.016;2023-07-16T00:17:52;99765.78;;;21.48;87.95
64683;BME280;51107;47.652;19.016;2023-07-16T00:20:21;99770.63;;;21.51;88.38
64683;BME280;51107;47.652;19.016;2023-07-16T00:22:54;99762.91;;;21.49;87.46
64683;BME280;51107;47.652;19.016;2023-07-16T00:25:22;99770.88;;;21.49;87.75
64683;BME280;51107;47.652;19.016;2023-07-16T00:27:51;99767.50;;;21.42;87.93
64683;BME280;51107;47.652;19.016;2023-07-16T00:30:19;99769.69;;;21.45;88.17
64683;BME280;51107;47.652;19.016;2023-07-16T00:32:48;99765.19;;;21.46;88.09
64683;BME280;51107;47.652;19.016;2023-07-16T00:35:16;99764.31;;;21.33;89.38
64683;BME280;51107;47.652;19.016;2023-07-16T00:37:45;99754.97;;;21.31;89.00
64683;BME280;51107;47.652;19.016;2023-07-16T00:40:13;99753.59;;;21.28;90.08
64683;BME280;51107;47.652;19.016;2023-07-16T00:42:42;99759.84;;;21.34;89.08
64683;BME280;51107;47.652;19.016;2023-07-16T00:45:12;99764.91;;;21.35;88.96
64683;BME280;51107;47.652;19.016;2023-07-16T00:47:44;99764.59;;;21.25;89.44
64683;BME280;51107;47.652;19.016;2023-07-16T00:50:12;99756.66;;;21.25;89.68
64683;BME280;51107;47.652;19.016;2023-07-16T00:52:41;99759.53;;;21.24;89.30
64683;BME280;51107;47.652;19.016;2023-07-16T00:55:10;99761.84;;;21.20;89.30
64683;BME280;51107;47.652;19.016;2023-07-16T00:57:38;99755.34;;;21.16;89.46
64683;BME280;51107;47.652;19.016;2023-07-16T01:00:09;99759.25;;;21.13;89.75
64683;BME280;51107;47.652;19.016;2023-07-16T01:02:39;99756.44;;;21.08;90.14
64683;BME280;51107;47.652;19.016;2023-07-16T01:05:07;99756.81;;;21.12;89.34
64683;BME280;51107;47.652;19.016;2023-07-16T01:07:37;99746.00;;;21.13;89.29
64683;BME280;51107;47.652;19.016;2023-07-16T01:10:11;99751.00;;;21.21;88.80
64683;BME280;51107;47.652;19.016;2023-07-16T01:12:39;99745.34;;;21.18;88.98
64683;BME280;51107;47.652;19.016;2023-07-16T01:15:08;99748.94;;;21.05;90.00
64683;BME280;51107;47.652;19.016;2023-07-16T01:17:39;99747.03;;;21.12;89.33
64683;BME280;51107;47.652;19.016;2023-07-16T01:20:08;99739.88;;;21.13;89.30
64683;BME280;51107;47.652;19.016;2023-07-16T01:22:48;99747.31;;;21.04;89.66
64683;BME280;51107;47.652;19.016;2023-07-16T01:25:24;99746.28;;;21.05;89.54
64683;BME280;51107;47.652;19.016;2023-07-16T01:30:51;99740.63;;;21.01;89.72
64683;BME280;51107;47.652;19.016;2023-07-16T01:33:22;99743.09;;;20.96;90.16
64683;BME280;51107;47.652;19.016;2023-07-16T01:35:52;99741.44;;;21.02;89.05
64683;BME280;51107;47.652;19.016;2023-07-16T01:38:21;99740.91;;;20.93;89.55
64683;BME280;51107;47.652;19.016;2023-07-16T01:40:51;99730.53;;;20.92;89.94
64683;BME280;51107;47.652;19.016;2023-07-16T01:43:20;99740.69;;;20.95;89.49
64683;BME280;51107;47.652;19.016;2023-07-16T01:45:48;99731.78;;;20.89;89.94
64683;BME280;51107;47.652;19.016;2023-07-16T01:48:34;99741.69;;;20.75;90.27
64683;BME280;51107;47.652;19.016;2023-07-16T01:51:04;99738.16;;;20.56;92.26
64683;BME280;51107;47.652;19.016;2023-07-16T01:53:32;99742.59;;;20.62;91.51
64683;BME280;51107;47.652;19.016;2023-07-16T01:56:04;99734.66;;;20.62;91.23
64683;BME280;51107;47.652;19.016;2023-07-16T01:58:32;99724.94;;;20.56;91.17
64683;BME280;51107;47.652;19.016;2023-07-16T02:01:01;99724.19;;;20.49;91.99
64683;BME280;51107;47.652;19.016;2023-07-16T02:03:30;99736.34;;;20.31;93.78
64683;BME280;51107;47.652;19.016;2023-07-16T02:05:59;99731.16;;;20.43;92.66
64683;BME280;51107;47.652;19.016;2023-07-16T02:08:27;99723.66;;;20.40;92.30
64683;BME280;51107;47.652;19.016;2023-07-16T02:10:56;99732.19;;;20.42;92.55
64683;BME280;51107;47.652;19.016;2023-07-16T02:13:25;99730.72;;;20.46;92.17
64683;BME280;51107;47.652;19.016;2023-07-16T02:15:53;99731.81;;;20.39;93.34
64683;BME280;51107;47.652;19.016;2023-07-16T02:18:22;99735.00;;;20.47;92.45
64683;BME280;51107;47.652;19.016;2023-07-16T02:20:50;99725.06;;;20.43;92.62
64683;BME280;51107;47.652;19.016;2023-07-16T02:23:19;99726.53;;;20.39;92.73
64683;BME280;51107;47.652;19.016;2023-07-16T02:25:47;99735.06;;;20.41;92.08
64683;BME280;51107;47.652;19.016;2023-07-16T02:28:16;99730.03;;;20.32;93.19
64683;BME280;51107;47.652;19.016;2023-07-16T02:30:45;99727.81;;;20.29;92.98
64683;BME280;51107;47.652;19.016;2023-07-16T02:33:13;99720.63;;;20.11;94.85
64683;BME280;51107;47.652;19.016;2023-07-16T02:35:46;99733.16;;;20.23;94.12
64683;BME280;51107;47.652;19.016;2023-07-16T02:38:16;99733.94;;;20.23;93.12
64683;BME280;51107;47.652;19.016;2023-07-16T02:40:44;99727.53;;;20.12;94.07
64683;BME280;51107;47.652;19.016;2023-07-16T02:43:13;99725.22;;;20.23;93.84
64683;BME280;51107;47.652;19.016;2023-07-16T02:45:41;99730.72;;;20.21;93.67
64683;BME280;51107;47.652;19.016;2023-07-16T02:48:10;99722.56;;;20.23;92.13
64683;BME280;51107;47.652;19.016;2023-07-16T02:50:39;99734.47;;;20.07;93.52
64683;BME280;51107;47.652;19.016;2023-07-16T02:53:07;99730.00;;;20.07;94.63
64683;BME280;51107;47.652;19.016;2023-07-16T02:55:36;99723.22;;;20.18;93.49
64683;BME280;51107;47.652;19.016;2023-07-16T02:58:04;99719.41;;;20.14;94.05
64683;BME280;51107;47.652;19.016;2023-07-16T03:00:34;99735.03;;;20.15;94.13
64683;BME280;51107;47.652;19.016;2023-07-16T03:03:02;99733.25;;;20.09;94.78
64683;BME280;51107;47.652;19.016;2023-07-16T03:05:31;99738.09;;;20.12;95.22
64683;BME280;51107;47.652;19.016;2023-07-16T03:07:59;99733.19;;;20.16;95.60
64683;BME280;51107;47.652;19.016;2023-07-16T03:10:28;99732.34;;;20.22;95.28
64683;BME280;51107;47.652;19.016;2023-07-16T03:12:56;99732.13;;;20.24;94.56
64683;BME280;51107;47.652;19.016;2023-07-16T03:15:25;99730.56;;;20.16;94.98
64683;BME280;51107;47.652;19.016;2023-07-16T03:17:53;99744.38;;;20.18;94.91
64683;BME280;51107;47.652;19.016;2023-07-16T03:20:21;99741.75;;;20.18;94.70
64683;BME280;51107;47.652;19.016;2023-07-16T03:22:50;99741.59;;;20.06;95.88
64683;BME280;51107;47.652;19.016;2023-07-16T03:25:19;99741.59;;;20.06;95.83
64683;BME280;51107;47.652;19.016;2023-07-16T03:27:47;99736.28;;;20.13;94.37
64683;BME280;51107;47.652;19.016;2023-07-16T03:30:15;99748.28;;;20.15;94.17
64683;BME280;51107;47.652;19.016;2023-07-16T03:32:44;99749.50;;;20.13;94.43
64683;BME280;51107;47.652;19.016;2023-07-16T03:35:21;99748.34;;;20.02;95.80
64683;BME280;51107;47.652;19.016;2023-07-16T03:37:53;99748.94;;;20.04;95.33
64683;BME280;51107;47.652;19.016;2023-07-16T03:40:24;99758.28;;;20.07;95.10
64683;BME280;51107;47.652;19.016;2023-07-16T03:42:53;99764.59;;;20.06;94.68
64683;BME280;51107;47.652;19.016;2023-07-16T03:45:23;99761.53;;;20.09;95.39
64683;BME280;51107;47.652;19.016;2023-07-16T03:47:52;99762.28;;;20.16;94.29
64683;BME280;51107;47.652;19.016;2023-07-16T03:50:20;99766.66;;;20.29;93.36
64683;BME280;51107;47.652;19.016;2023-07-16T03:52:48;99769.69;;;20.32;93.92
64683;BME280;51107;47.652;19.016;2023-07-16T03:55:17;99776.19;;;20.36;93.35
64683;BME280;51107;47.652;19.016;2023-07-16T03:57:45;99774.69;;;20.47;92.77
64683;BME280;51107;47.652;19.016;2023-07-16T04:00:14;99775.22;;;20.56;92.38
64683;BME280;51107;47.652;19.016;2023-07-16T04:02:42;99772.78;;;20.54;92.44
64683;BME280;51107;47.652;19.016;2023-07-16T04:05:11;99774.84;;;20.52;92.97
64683;BME280;51107;47.652;19.016;2023-07-16T04:07:40;99783.81;;;20.51;92.67
64683;BME280;51107;47.652;19.016;2023-07-16T04:10:08;99781.38;;;20.50;94.37
64683;BME280;51107;47.652;19.016;2023-07-16T04:12:37;99783.47;;;20.41;94.67
64683;BME280;51107;47.652;19.016;2023-07-16T04:15:07;99780.72;;;20.29;96.43
64683;BME280;51107;47.652;19.016;2023-07-16T04:17:38;99781.47;;;20.36;96.20
64683;BME280;51107;47.652;19.016;2023-07-16T04:20:07;99787.16;;;20.40;94.78
64683;BME280;51107;47.652;19.016;2023-07-16T04:22:36;99786.13;;;20.41;94.72
64683;BME280;51107;47.652;19.016;2023-07-16T04:25:05;99782.19;;;20.50;93.44
64683;BME280;51107;47.652;19.016;2023-07-16T04:27:33;99794.28;;;20.40;93.29
64683;BME280;51107;47.652;19.016;2023-07-16T04:30:02;99784.62;;;20.52;92.92
64683;BME280;51107;47.652;19.016;2023-07-16T04:32:31;99777.69;;;20.51;92.75
64683;BME280;51107;47.652;19.016;2023-07-16T04:34:59;99776.78;;;20.64;92.13
64683;BME280;51107;47.652;19.016;2023-07-16T04:37:27;99791.19;;;20.75;90.16
64683;BME280;51107;47.652;19.016;2023-07-16T04:39:56;99794.81;;;20.80;91.50
64683;BME280;51107;47.652;19.016;2023-07-16T04:42:24;99789.88;;;20.84;91.16
64683;BME280;51107;47.652;19.016;2023-07-16T04:44:52;99790.59;;;20.98;90.55
64683;BME280;51107;47.652;19.016;2023-07-16T04:47:21;99788.28;;;21.01;89.33
64683;BME280;51107;47.652;19.016;2023-07-16T04:49:49;99794.59;;;21.00;87.30
64683;BME280;51107;47.652;19.016;2023-07-16T04:52:17;99798.72;;;20.96;88.90
64683;BME280;51107;47.652;19.016;2023-07-16T04:54:46;99797.97;;;20.89;87.25
64683;BME280;51107;47.652;19.016;2023-07-16T04:57:14;99803.59;;;20.99;86.87
64683;BME280;51107;47.652;19.016;2023-07-16T04:59:43;99807.78;;;21.07;86.42
64683;BME280;51107;47.652;19.016;2023-07-16T05:02:11;99822.81;;;21.13;85.51
64683;BME280;51107;47.652;19.016;2023-07-16T05:04:40;99811.34;;;21.19;86.30
64683;BME280;51107;47.652;19.016;2023-07-16T05:07:08;99818.47;;;21.19;87.77
64683;BME280;51107;47.652;19.016;2023-07-16T05:09:37;99821.81;;;21.33;86.67
64683;BME280;51107;47.652;19.016;2023-07-16T05:12:05;99821.00;;;21.32;86.79
64683;BME280;51107;47.652;19.016;2023-07-16T05:14:46;99824.16;;;21.41;86.57
64683;BME280;51107;47.652;19.016;2023-07-16T05:17:15;99830.56;;;21.52;85.86
64683;BME280;51107;47.652;19.016;2023-07-16T05:19:44;99828.00;;;21.64;85.07
64683;BME280;51107;47.652;19.016;2023-07-16T05:22:13;99824.25;;;21.71;84.22
64683;BME280;51107;47.652;19.016;2023-07-16T05:24:42;99825.41;;;21.76;81.51
64683;BME280;51107;47.652;19.016;2023-07-16T05:27:10;99816.13;;;21.85;81.45
64683;BME280;51107;47.652;19.016;2023-07-16T05:29:38;99812.94;;;21.95;81.89
64683;BME280;51107;47.652;19.016;2023-07-16T05:32:07;99812.41;;;22.04;82.65
64683;BME280;51107;47.652;19.016;2023-07-16T05:34:36;99817.03;;;22.09;80.49
64683;BME280;51107;47.652;19.016;2023-07-16T05:37:04;99809.81;;;22.16;79.81
64683;BME280;51107;47.652;19.016;2023-07-16T05:39:33;99811.91;;;22.26;79.58
64683;BME280;51107;47.652;19.016;2023-07-16T05:42:01;99823.44;;;22.32;79.13
64683;BME280;51107;47.652;19.016;2023-07-16T05:44:30;99821.31;;;22.41;79.54
64683;BME280;51107;47.652;19.016;2023-07-16T05:46:59;99808.97;;;22.46;78.78
64683;BME280;51107;47.652;19.016;2023-07-16T05:49:27;99819.25;;;22.54;79.33
64683;BME280;51107;47.652;19.016;2023-07-16T05:51:55;99814.44;;;22.63;79.92
64683;BME280;51107;47.652;19.016;2023-07-16T05:54:24;99820.06;;;22.67;79.03
64683;BME280;51107;47.652;19.016;2023-07-16T05:56:52;99817.53;;;22.72;79.22
64683;BME280;51107;47.652;19.016;2023-07-16T05:59:21;99818.13;;;22.74;80.01
64683;BME280;51107;47.652;19.016;2023-07-16T06:01:50;99820.22;;;22.84;81.07
64683;BME280;51107;47.652;19.016;2023-07-16T06:04:18;99827.03;;;22.92;78.55
64683;BME280;51107;47.652;19.016;2023-07-16T06:06:47;99841.22;;;22.97;79.04
64683;BME280;51107;47.652;19.016;2023-07-16T06:09:19;99829.56;;;22.98;77.30
64683;BME280;51107;47.652;19.016;2023-07-16T06:11:47;99827.34;;;23.07;77.19
64683;BME280;51107;47.652;19.016;2023-07-16T06:14:16;99825.78;;;23.18;77.55
64683;BME280;51107;47.652;19.016;2023-07-16T06:16:44;99818.72;;;23.23;77.44
64683;BME280;51107;47.652;19.016;2023-07-16T06:19:13;99829.59;;;23.34;78.25
64683;BME280;51107;47.652;19.016;2023-07-16T06:21:41;99830.00;;;23.43;75.80
64683;BME280;51107;47.652;19.016;2023-07-16T06:24:10;99835.44;;;23.48;74.35
64683;BME280;51107;47.652;19.016;2023-07-16T06:26:43;99842.25;;;23.55;72.90
64683;BME280;51107;47.652;19.016;2023-07-16T06:29:12;99837.62;;;23.63;75.69
64683;BME280;51107;47.652;19.016;2023-07-16T06:31:42;99838.28;;;23.70;76.16
64683;BME280;51107;47.652;19.016;2023-07-16T06:34:12;99831.78;;;23.78;73.22
64683;BME280;51107;47.652;19.016;2023-07-16T06:36:40;99839.84;;;23.83;73.76
64683;BME280;51107;47.652;19.016;2023-07-16T06:39:09;99836.41;;;23.94;72.80
64683;BME280;51107;47.652;19.016;2023-07-16T06:41:37;99838.69;;;24.02;72.96
64683;BME280;51107;47.652;19.016;2023-07-16T06:44:08;99838.94;;;24.18;71.49
64683;BME280;51107;47.652;19.016;2023-07-16T06:46:36;99834.28;;;24.25;71.31
64683;BME280;51107;47.652;19.016;2023-07-16T06:49:05;99826.94;;;24.32;71.73
64683;BME280;51107;47.652;19.016;2023-07-16T06:51:35;99826.06;;;24.43;71.68
64683;BME280;51107;47.652;19.016;2023-07-16T06:54:03;99827.88;;;24.55;71.16
64683;BME280;51107;47.652;19.016;2023-07-16T06:56:32;99829.75;;;24.71;71.79
64683;BME280;51107;47.652;19.016;2023-07-16T06:59:00;99826.81;;;24.90;70.72
64683;BME280;51107;47.652;19.016;2023-07-16T07:01:28;99832.94;;;25.07;70.73
64683;BME280;51107;47.652;19.016;2023-07-16T07:03:57;99830.72;;;25.21;69.75
64683;BME280;51107;47.652;19.016;2023-07-16T07:06:25;99828.19;;;25.49;65.56
64683;BME280;51107;47.652;19.016;2023-07-16T07:08:54;99823.59;;;25.66;67.25
64683;BME280;51107;47.652;19.016;2023-07-16T07:11:22;99822.03;;;25.70;65.12
64683;BME280;51107;47.652;19.016;2023-07-16T07:13:52;99826.69;;;25.80;65.08
64683;BME280;51107;47.652;19.016;2023-07-16T07:16:20;99828.38;;;25.91;62.24
64683;BME280;51107;47.652;19.016;2023-07-16T07:18:49;99818.75;;;26.13;64.76
64683;BME280;51107;47.652;19.016;2023-07-16T07:21:17;99829.56;;;26.60;61.23
64683;BME280;51107;47.652;19.016;2023-07-16T07:23:45;99821.84;;;26.64;62.47
64683;BME280;51107;47.652;19.016;2023-07-16T07:26:14;99818.56;;;26.89;61.04
64683;BME280;51107;47.652;19.016;2023-07-16T07:28:43;99812.72;;;26.92;61.41
64683;BME280;51107;47.652;19.016;2023-07-16T07:31:11;99825.91;;;27.09;60.45
64683;BME280;51107;47.652;19.016;2023-07-16T07:33:40;99825.75;;;27.32;60.82
64683;BME280;51107;47.652;19.016;2023-07-16T07:36:08;99821.00;;;27.39;59.54
64683;BME280;51107;47.652;19.016;2023-07-16T07:38:36;99827.19;;;27.55;59.37
64683;BME280;51107;47.652;19.016;2023-07-16T07:41:07;99830.50;;;27.88;60.18
64683;BME280;51107;47.652;19.016;2023-07-16T07:43:35;99830.81;;;27.96;60.23
64683;BME280;51107;47.652;19.016;2023-07-16T07:46:03;99826.31;;;28.02;60.11
64683;BME280;51107;47.652;19.016;2023-07-16T07:48:32;99818.81;;;28.15;55.18
64683;BME280;51107;47.652;19.016;2023-07-16T07:51:00;99817.75;;;28.31;59.33
64683;BME280;51107;47.652;19.016;2023-07-16T07:53:28;99816.44;;;28.64;58.51
64683;BME280;51107;47.652;19.016;2023-07-16T07:55:57;99813.16;;;28.88;58.62
64683;BME280;51107;47.652;19.016;2023-07-16T07:58:25;99804.78;;;29.26;56.19
64683;BME280;51107;47.652;19.016;2023-07-16T08:00:53;99814.88;;;29.50;58.70
64683;BME280;51107;47.652;19.016;2023-07-16T08:03:22;99812.69;;;29.57;57.43
64683;BME280;51107;47.652;19.016;2023-07-16T08:05:51;99810.28;;;30.05;55.34
64683;BME280;51107;47.652;19.016;2023-07-16T08:08:19;99814.22;;;30.18;54.64
64683;BME280;51107;47.652;19.016;2023-07-16T08:10:47;99805.59;;;30.21;51.87
64683;BME280;51107;47.652;19.016;2023-07-16T08:13:16;99809.25;;;30.36;52.05
64683;BME280;51107;47.652;19.016;2023-07-16T08:15:44;99806.97;;;30.53;53.17
64683;BME280;51107;47.652;19.016;2023-07-16T08:18:13;99804.00;;;30.55;50.72
64683;BME280;51107;47.652;19.016;2023-07-16T08:20:41;99808.88;;;30.53;51.41
64683;BME280;51107;47.652;19.016;2023-07-16T08:23:09;99798.72;;;30.74;51.32
64683;BME280;51107;47.652;19.016;2023-07-16T08:25:38;99807.84;;;30.73;49.11
64683;BME280;51107;47.652;19.016;2023-07-16T08:28:07;99805.00;;;30.88;53.36
64683;BME280;51107;47.652;19.016;2023-07-16T08:30:35;99804.88;;;31.04;51.09
64683;BME280;51107;47.652;19.016;2023-07-16T08:33:04;99800.69;;;31.16;50.29
64683;BME280;51107;47.652;19.016;2023-07-16T08:35:33;99805.84;;;31.56;47.76
64683;BME280;51107;47.652;19.016;2023-07-16T08:38:02;99803.22;;;31.51;52.40
64683;BME280;51107;47.652;19.016;2023-07-16T08:40:31;99801.94;;;31.87;49.79
64683;BME280;51107;47.652;19.016;2023-07-16T08:42:59;99795.19;;;31.89;50.19
64683;BME280;51107;47.652;19.016;2023-07-16T08:45:29;99803.87;;;32.19;47.35
64683;BME280;51107;47.652;19.016;2023-07-16T08:47:58;99808.06;;;32.44;49.15
64683;BME280;51107;47.652;19.016;2023-07-16T08:50:27;99799.25;;;32.72;45.32
64683;BME280;51107;47.652;19.016;2023-07-16T08:53:00;99802.84;;;32.95;45.23
64683;BME280;51107;47.652;19.016;2023-07-16T08:55:29;99795.16;;;33.02;45.22
64683;BME280;51107;47.652;19.016;2023-07-16T08:57:57;99803.44;;;33.19;44.83
64683;BME280;51107;47.652;19.016;2023-07-16T09:00:27;99798.66;;;33.02;49.59
64683;BME280;51107;47.652;19.016;2023-07-16T09:02:55;99800.16;;;33.23;44.81
64683;BME280;51107;47.652;19.016;2023-07-16T09:05:23;99808.81;;;33.61;43.31
64683;BME280;51107;47.652;19.016;2023-07-16T09:08:07;99805.06;;;33.71;43.87
64683;BME280;51107;47.652;19.016;2023-07-16T09:10:36;99805.53;;;33.73;44.58
64683;BME280;51107;47.652;19.016;2023-07-16T09:13:04;99807.16;;;33.74;42.74
64683;BME280;51107;47.652;19.016;2023-07-16T09:15:33;99806.66;;;33.72;43.35
64683;BME280;51107;47.652;19.016;2023-07-16T09:18:02;99798.75;;;33.76;43.30
64683;BME280;51107;47.652;19.016;2023-07-16T09:20:31;99797.63;;;33.40;46.01
64683;BME280;51107;47.652;19.016;2023-07-16T09:22:59;99796.53;;;33.41;40.95
64683;BME280;51107;47.652;19.016;2023-07-16T09:25:29;99799.25;;;33.27;41.23
64683;BME280;51107;47.652;19.016;2023-07-16T09:28:00;99800.03;;;33.42;45.99
64683;BME280;51107;47.652;19.016;2023-07-16T09:30:31;99793.41;;;33.48;42.79
64683;BME280;51107;47.652;19.016;2023-07-16T09:33:13;99797.59;;;33.54;43.19
64683;BME280;51107;47.652;19.016;2023-07-16T09:35:43;99792.75;;;33.42;42.78
64683;BME280;51107;47.652;19.016;2023-07-16T09:38:12;99791.97;;;33.64;41.49
64683;BME280;51107;47.652;19.016;2023-07-16T09:40:40;99786.16;;;33.71;43.40
64683;BME280;51107;47.652;19.016;2023-07-16T09:43:12;99795.66;;;33.32;46.27
64683;BME280;51107;47.652;19.016;2023-07-16T09:45:42;99787.25;;;33.70;41.98
64683;BME280;51107;47.652;19.016;2023-07-16T09:48:10;99787.03;;;33.80;43.83
64683;BME280;51107;47.652;19.016;2023-07-16T09:50:47;99790.25;;;33.82;41.77
64683;BME280;51107;47.652;19.016;2023-07-16T09:53:19;99792.53;;;33.89;40.94
64683;BME280;51107;47.652;19.016;2023-07-16T09:55:48;99789.34;;;33.73;40.65
64683;BME280;51107;47.652;19.016;2023-07-16T09:58:18;99786.75;;;33.68;41.91
64683;BME280;51107;47.652;19.016;2023-07-16T10:00:48;99791.66;;;34.02;42.75
64683;BME280;51107;47.652;19.016;2023-07-16T10:03:17;99786.28;;;34.02;41.71
64683;BME280;51107;47.652;19.016;2023-07-16T10:05:46;99781.03;;;34.06;41.43
64683;BME280;51107;47.652;19.016;2023-07-16T10:08:19;99784.34;;;33.66;42.50
64683;BME280;51107;47.652;19.016;2023-07-16T10:10:48;99779.69;;;33.95;42.75
64683;BME280;51107;47.652;19.016;2023-07-16T10:13:17;99780.41;;;33.50;42.15
64683;BME280;51107;47.652;19.016;2023-07-16T10:15:56;99774.88;;;33.32;43.30
64683;BME280;51107;47.652;19.016;2023-07-16T10:18:29;99774.97;;;33.64;42.62
64683;BME280;51107;47.652;19.016;2023-07-16T10:21:07;99771.66;;;33.16;42.25
64683;BME280;51107;47.652;19.016;2023-07-16T10:23:41;99767.69;;;32.86;43.05
64683;BME280;51107;47.652;19.016;2023-07-16T10:26:12;99783.84;;;32.86;46.15
64683;BME280;51107;47.652;19.016;2023-07-16T10:28:46;99771.59;;;32.80;45.51
64683;BME280;51107;47.652;19.016;2023-07-16T10:31:23;99759.03;;;32.56;45.81
64683;BME280;51107;47.652;19.016;2023-07-16T10:34:00;99761.62;;;32.47;44.83
64683;BME280;51107;47.652;19.016;2023-07-16T10:36:30;99756.78;;;33.05;47.48
64683;BME280;51107;47.652;19.016;2023-07-16T10:39:04;99751.06;;;33.21;45.43
64683;BME280;51107;47.652;19.016;2023-07-16T10:41:33;99753.25;;;33.05;42.57
64683;BME280;51107;47.652;19.016;2023-07-16T10:44:01;99756.56;;;33.15;43.70
64683;BME280;51107;47.652;19.016;2023-07-16T10:46:31;99751.56;;;33.23;43.78
64683;BME280;51107;47.652;19.016;2023-07-16T10:49:00;99756.28;;;33.31;42.85
64683;BME280;51107;47.652;19.016;2023-07-16T10:51:28;99755.16;;;33.18;43.23
64683;BME280;51107;47.652;19.016;2023-07-16T10:53:57;99754.34;;;33.17;44.63
64683;BME280;51107;47.652;19.016;2023-07-16T10:56:26;99750.56;;;33.32;44.70
64683;BME280;51107;47.652;19.016;2023-07-16T10:58:54;99749.66;;;33.23;43.84
64683;BME280;51107;47.652;19.016;2023-07-16T11:01:23;99735.53;;;33.40;45.29
64683;BME280;51107;47.652;19.016;2023-07-16T11:03:51;99742.16;;;33.34;42.19
64683;BME280;51107;47.652;19.016;2023-07-16T11:06:20;99746.66;;;33.25;41.75
64683;BME280;51107;47.652;19.016;2023-07-16T11:08:48;99743.78;;;32.93;42.27
64683;BME280;51107;47.652;19.016;2023-07-16T11:11:27;99745.31;;;32.72;45.47
64683;BME280;51107;47.652;19.016;2023-07-16T11:13:56;99734.47;;;32.58;46.29
64683;BME280;51107;47.652;19.016;2023-07-16T11:16:25;99737.66;;;32.46;43.30
64683;BME280;51107;47.652;19.016;2023-07-16T11:18:53;99729.38;;;32.56;44.37
64683;BME280;51107;47.652;19.016;2023-07-16T11:21:21;99730.41;;;32.74;44.53
64683;BME280;51107;47.652;19.016;2023-07-16T11:23:50;99729.13;;;32.72;42.08
64683;BME280;51107;47.652;19.016;2023-07-16T11:26:18;99728.81;;;32.73;42.77
64683;BME280;51107;47.652;19.016;2023-07-16T11:28:50;99730.22;;;32.84;42.91
64683;BME280;51107;47.652;19.016;2023-07-16T11:31:19;99730.91;;;32.90;41.65
64683;BME280;51107;47.652;19.016;2023-07-16T11:33:51;99724.88;;;33.07;45.33
64683;BME280;51107;47.652;19.016;2023-07-16T11:36:20;99732.94;;;33.21;42.03
64683;BME280;51107;47.652;19.016;2023-07-16T11:38:49;99727.16;;;33.14;42.74
64683;BME280;51107;47.652;19.016;2023-07-16T11:41:20;99728.47;;;33.16;39.17
64683;BME280;51107;47.652;19.016;2023-07-16T11:43:49;99724.06;;;33.21;42.31
64683;BME280;51107;47.652;19.016;2023-07-16T11:46:21;99731.88;;;33.08;41.85
64683;BME280;51107;47.652;19.016;2023-07-16T11:48:50;99732.09;;;32.98;42.34
64683;BME280;51107;47.652;19.016;2023-07-16T11:51:18;99731.56;;;33.24;41.58
64683;BME280;51107;47.652;19.016;2023-07-16T11:53:46;99731.78;;;33.27;43.03
64683;BME280;51107;47.652;19.016;2023-07-16T11:56:15;99728.25;;;33.13;43.10
64683;BME280;51107;47.652;19.016;2023-07-16T11:58:43;99726.06;;;33.15;42.03
64683;BME280;51107;47.652;19.016;2023-07-16T12:01:12;99725.72;;;32.94;41.21
64683;BME280;51107;47.652;19.016;2023-07-16T12:03:42;99721.72;;;32.77;42.32
64683;BME280;51107;47.652;19.016;2023-07-16T12:06:11;99725.69;;;32.66;41.47
64683;BME280;51107;47.652;19.016;2023-07-16T12:08:39;99731.75;;;32.44;44.14
64683;BME280;51107;47.652;19.016;2023-07-16T12:11:08;99736.66;;;32.42;43.75
64683;BME280;51107;47.652;19.016;2023-07-16T12:13:39;99730.31;;;32.18;43.15
64683;BME280;51107;47.652;19.016;2023-07-16T12:16:11;99731.41;;;32.17;42.58
64683;BME280;51107;47.652;19.016;2023-07-16T12:18:39;99726.03;;;32.17;42.55
64683;BME280;51107;47.652;19.016;2023-07-16T12:21:08;99727.66;;;32.32;42.23
64683;BME280;51107;47.652;19.016;2023-07-16T12:23:37;99728.28;;;32.43;43.67
64683;BME280;51107;47.652;19.016;2023-07-16T12:26:05;99725.38;;;32.40;42.76
64683;BME280;51107;47.652;19.016;2023-07-16T12:28:34;99716.59;;;32.48;42.56
64683;BME280;51107;47.652;19.016;2023-07-16T12:31:02;99717.59;;;32.66;41.13
64683;BME280;51107;47.652;19.016;2023-07-16T12:33:31;99722.69;;;32.67;40.83
64683;BME280;51107;47.652;19.016;2023-07-16T12:35:59;99720.91;;;32.77;42.90
64683;BME280;51107;47.652;19.016;2023-07-16T12:38:28;99720.28;;;32.66;40.41
64683;BME280;51107;47.652;19.016;2023-07-16T12:40:59;99712.41;;;32.56;41.41
64683;BME280;51107;47.652;19.016;2023-07-16T12:43:28;99718.72;;;32.51;41.22
64683;BME280;51107;47.652;19.016;2023-07-16T12:45:56;99725.19;;;32.36;43.46
64683;BME280;51107;47.652;19.016;2023-07-16T12:48:27;99723.78;;;32.25;42.37
64683;BME280;51107;47.652;19.016;2023-07-16T12:50:55;99724.44;;;32.16;43.37
64683;BME280;51107;47.652;19.016;2023-07-16T12:53:25;99722.34;;;32.27;42.21
64683;BME280;51107;47.652;19.016;2023-07-16T12:55:56;99727.56;;;32.24;42.38
64683;BME280;51107;47.652;19.016;2023-07-16T12:58:24;99728.59;;;32.09;42.40
64683;BME280;51107;47.652;19.016;2023-07-16T13:00:54;99720.53;;;31.90;42.89
64683;BME280;51107;47.652;19.016;2023-07-16T13:03:22;99726.59;;;31.81;42.51